createdAt,value
2019-04-03T00:04:16.787Z,95058.80
2019-04-03T00:09:18.389Z,95065.12
2019-04-03T00:14:20.690Z,95058.84
2019-04-03T00:19:22.425Z,95053.87
2019-04-03T00:24:24.114Z,95051.61
2019-04-03T00:29:25.847Z,95040.45
2019-04-03T00:34:27.609Z,95033.89
2019-04-03T00:39:29.380Z,95035.26
2019-04-03T00:44:31.083Z,95030.29
2019-04-03T00:49:32.887Z,95027.25
2019-04-03T00:54:34.705Z,95020.16
2019-04-03T00:59:36.425Z,95021.23
2019-04-03T01:04:38.246Z,95019.73
2019-04-03T01:09:40.005Z,95012.62
2019-04-03T01:14:41.745Z,95014.91
2019-04-03T01:19:43.513Z,95009.25
2019-04-03T01:24:45.312Z,95007.77
2019-04-03T01:29:47.056Z,95000.52
2019-04-03T01:34:48.749Z,94996.87
2019-04-03T01:39:51.236Z,94996.11
2019-04-03T01:44:55.032Z,94993.73
2019-04-03T01:49:58.459Z,94990.98
2019-04-03T01:55:03.388Z,94992.19
2019-04-03T02:00:06.971Z,94989.02
2019-04-03T02:05:08.805Z,94993.70
2019-04-03T02:10:20.330Z,94987.80
2019-04-03T02:15:23.053Z,94989.68
2019-04-03T02:20:26.761Z,94987.15
2019-04-03T02:25:31.555Z,94988.78
2019-04-03T02:30:32.825Z,94980.91
2019-04-03T02:35:34.674Z,94983.95
2019-04-03T02:40:36.396Z,94982.73
2019-04-03T02:45:38.556Z,94987.84
2019-04-03T02:50:40.294Z,94986.70
2019-04-03T02:55:42.011Z,94992.53
2019-04-03T03:00:43.779Z,94991.67
2019-04-03T03:05:45.552Z,94992.66
2019-04-03T03:10:48.979Z,94991.73
2019-04-03T03:15:51.010Z,94992.59
2019-04-03T03:20:52.888Z,94990.42
2019-04-03T03:25:54.739Z,94989.20
2019-04-03T03:31:02.031Z,94995.08
2019-04-03T03:36:01.518Z,94992.21
2019-04-03T03:41:03.482Z,94987.56
2019-04-03T03:46:05.804Z,94990.92
2019-04-03T03:51:07.667Z,94992.97
2019-04-03T03:56:09.619Z,94997.05
2019-04-03T04:01:11.362Z,94998.80
2019-04-03T04:06:13.361Z,95002.44
2019-04-03T04:11:15.536Z,95005.48
2019-04-03T04:16:18.503Z,95003.66
2019-04-03T04:21:20.222Z,95013.73
2019-04-03T04:26:21.950Z,95006.17
2019-04-03T04:31:24.581Z,95006.53
2019-04-03T04:36:26.355Z,95010.84
2019-04-03T04:41:28.154Z,95018.89
2019-04-03T04:46:29.965Z,95017.52
2019-04-03T04:51:31.822Z,95020.17
2019-04-03T04:56:33.570Z,95019.95
2019-04-03T05:01:35.267Z,95021.92
2019-04-03T05:06:37.022Z,95019.61
2019-04-03T05:11:39.469Z,95024.55
2019-04-03T05:16:41.236Z,95014.27
2019-04-03T05:21:43.185Z,95010.13
2019-04-03T05:26:44.978Z,95008.09
2019-04-03T05:31:46.762Z,95005.47
2019-04-03T05:36:49.148Z,95004.21
2019-04-03T05:41:50.985Z,95000.42
2019-04-03T05:46:52.765Z,95006.09
2019-04-03T05:51:54.653Z,95000.09
2019-04-03T05:56:56.442Z,94991.95
2019-04-03T06:01:58.369Z,94996.63
2019-04-03T06:07:00.270Z,94992.84
2019-04-03T06:12:02.074Z,94989.81
2019-04-03T06:17:03.792Z,94988.06
2019-04-03T06:22:05.609Z,94979.64
2019-04-03T06:27:09.182Z,94982.66
2019-04-03T06:32:11.059Z,94985.14
2019-04-03T06:37:16.027Z,94978.87
2019-04-03T06:42:17.863Z,94975.06
2019-04-03T06:47:19.667Z,94976.56
2019-04-03T06:52:22.137Z,94973.21
2019-04-03T06:57:23.934Z,94967.34
2019-04-03T07:02:27.725Z,94968.58
2019-04-03T07:07:34.310Z,94965.85
2019-04-03T07:12:34.168Z,94963.09
2019-04-03T07:17:36.253Z,94953.16
2019-04-03T07:22:38.043Z,94951.89
2019-04-03T07:27:41.883Z,94947.92
2019-04-03T07:32:43.542Z,94949.02
2019-04-03T07:37:45.383Z,94949.48
2019-04-03T07:42:47.141Z,94952.30
2019-04-03T07:47:48.915Z,94949.54
2019-04-03T07:52:50.751Z,94947.59
2019-04-03T07:57:52.760Z,94944.14
2019-04-03T08:02:54.617Z,94947.84
2019-04-03T08:07:56.550Z,94944.98
2019-04-03T08:12:59.885Z,94943.24
2019-04-03T08:18:01.945Z,94944.47
2019-04-03T08:23:05.951Z,94941.55
2019-04-03T08:28:07.430Z,94934.16
2019-04-03T08:33:15.919Z,94936.81
2019-04-03T08:38:14.170Z,94931.89
2019-04-03T08:43:16.251Z,94933.33
2019-04-03T08:48:18.305Z,94932.75
2019-04-03T08:53:20.647Z,94930.66
2019-04-03T08:58:25.414Z,94915.16
2019-04-03T09:03:26.263Z,94909.01
2019-04-03T09:08:30.827Z,94906.53
2019-04-03T09:13:33.667Z,94909.42
2019-04-03T09:18:38.044Z,94894.00
2019-04-03T09:23:39.066Z,94891.11
2019-04-03T09:28:41.915Z,94887.94
2019-04-03T09:33:45.306Z,94872.02
2019-04-03T09:38:47.219Z,94869.29
2019-04-03T09:43:49.253Z,94860.05
2019-04-03T09:48:51.568Z,94853.73
2019-04-03T09:53:53.680Z,94840.58
2019-04-03T09:58:56.680Z,94840.58
2019-04-03T10:03:58.964Z,94826.20
2019-04-03T10:09:00.906Z,94816.69
2019-04-03T10:14:04.456Z,94812.02
2019-04-03T10:19:06.285Z,94796.09
2019-04-03T10:24:08.164Z,94784.89
2019-04-03T10:29:09.924Z,94777.81
2019-04-03T10:34:13.979Z,94770.22
2019-04-03T10:39:15.955Z,94759.18
2019-04-03T10:44:18.258Z,94748.86
2019-04-03T10:49:20.062Z,94745.86
2019-04-03T10:54:23.948Z,94745.86
2019-04-03T10:59:25.785Z,94734.34
2019-04-03T11:04:27.555Z,94728.73
2019-04-03T11:09:29.266Z,94721.84
2019-04-03T11:14:31.091Z,94711.67
2019-04-03T11:19:32.827Z,94708.86
2019-04-03T11:24:37.706Z,94696.75
2019-04-03T11:29:40.993Z,94689.67
2019-04-03T11:34:42.305Z,94680.31
2019-04-03T11:39:46.243Z,94677.09
2019-04-03T11:44:48.124Z,94680.59
2019-04-03T11:49:52.501Z,94664.69
2019-04-03T11:54:53.616Z,94657.68
2019-04-03T11:59:56.921Z,94652.95
2019-04-03T12:04:59.003Z,94650.27
2019-04-03T12:10:02.883Z,94647.81
2019-04-03T12:15:07.785Z,94640.66
2019-04-03T12:20:09.971Z,94623.77
2019-04-03T12:25:14.008Z,94619.28
2019-04-03T12:30:16.157Z,94615.03
2019-04-03T12:35:17.983Z,94606.97
2019-04-03T12:40:19.806Z,94608.27
2019-04-03T12:45:21.658Z,94591.61
2019-04-03T12:50:26.879Z,94579.72
2019-04-03T12:55:27.182Z,94580.66
2019-04-03T13:00:28.862Z,94581.62
2019-04-03T13:05:30.732Z,94580.47
2019-04-03T13:10:41.483Z,94574.95
2019-04-03T13:15:37.589Z,94577.67
2019-04-03T13:20:39.941Z,94572.53
2019-04-03T13:25:42.053Z,94574.23
2019-04-03T13:30:44.653Z,94577.61
2019-04-03T13:35:48.147Z,94574.86
2019-04-03T13:40:50.947Z,94578.59
2019-04-03T13:45:52.856Z,94584.26
2019-04-03T13:50:55.498Z,94574.94
2019-04-03T13:55:57.995Z,94579.36
2019-04-03T14:01:02.775Z,94570.39
2019-04-03T14:06:04.386Z,94569.85
2019-04-03T14:11:07.191Z,94558.25
2019-04-03T14:16:19.731Z,94556.68
2019-04-03T14:21:14.082Z,94538.95
2019-04-03T14:26:15.971Z,94546.23
2019-04-03T14:31:18.661Z,94553.92
2019-04-03T14:36:20.828Z,94551.64
2019-04-03T14:41:23.082Z,94546.89
2019-04-03T14:46:24.916Z,94543.47
2019-04-03T14:51:27.197Z,94549.03
2019-04-03T14:56:30.385Z,94542.83
2019-04-03T15:01:33.134Z,94540.69
2019-04-03T15:06:34.951Z,94535.68
2019-04-03T15:11:37.003Z,94536.09
2019-04-03T15:16:39.024Z,94536.30
2019-04-03T15:21:40.966Z,94541.70
2019-04-03T15:26:43.129Z,94540.17
2019-04-03T15:31:46.298Z,94543.53
2019-04-03T15:36:51.544Z,94545.08
2019-04-03T15:41:53.459Z,94552.56
2019-04-03T15:46:55.263Z,94550.67
2019-04-03T15:51:57.014Z,94554.53
2019-04-03T15:56:58.957Z,94563.96
2019-04-03T16:02:00.748Z,94560.36
2019-04-03T16:07:02.888Z,94561.28
2019-04-03T16:12:06.235Z,94565.21
2019-04-03T16:17:08.755Z,94568.39
2019-04-03T16:22:11.780Z,94565.17
2019-04-03T16:27:13.925Z,94569.91
2019-04-03T16:32:16.012Z,94578.67
2019-04-03T16:37:20.517Z,94580.52
2019-04-03T16:42:22.618Z,94581.52
2019-04-03T16:47:27.535Z,94575.58
2019-04-03T16:52:30.226Z,94580.81
2019-04-03T16:57:32.200Z,94588.64
2019-04-03T17:02:34.325Z,94593.75
2019-04-03T17:07:37.718Z,94596.70
2019-04-03T17:12:40.769Z,94598.36
2019-04-03T17:17:46.122Z,94600.34
2019-04-03T17:22:47.478Z,94604.56
2019-04-03T17:27:54.965Z,94610.33
2019-04-03T17:32:53.045Z,94619.13
2019-04-03T17:37:54.948Z,94619.08
2019-04-03T17:42:56.751Z,94633.25
2019-04-03T17:48:00.542Z,94638.03
2019-04-03T17:53:02.315Z,94647.69
2019-04-03T17:58:04.359Z,94655.31
2019-04-03T18:03:06.117Z,94665.84
2019-04-03T18:08:07.833Z,94670.99
2019-04-03T18:13:09.671Z,94681.13
2019-04-03T18:18:11.474Z,94691.77
2019-04-03T18:23:13.297Z,94690.45
2019-04-03T18:28:15.075Z,94693.98
2019-04-03T18:33:17.544Z,94697.13
2019-04-03T18:38:19.586Z,94708.39
2019-04-03T18:43:22.405Z,94710.19
2019-04-03T18:48:24.379Z,94711.72
2019-04-03T18:53:26.117Z,94717.81
2019-04-03T18:58:27.978Z,94724.58
2019-04-03T19:03:29.882Z,94720.27
2019-04-03T19:08:32.224Z,94721.61
2019-04-03T19:13:34.162Z,94719.64
2019-04-03T19:18:36.061Z,94721.11
2019-04-03T19:23:49.132Z,94712.05
2019-04-03T19:28:41.577Z,94710.06
2019-04-03T19:33:45.491Z,94708.77
2019-04-03T19:38:47.006Z,94707.29
2019-04-03T19:43:48.769Z,94715.69
2019-04-03T19:48:50.689Z,94711.08
2019-04-03T19:53:59.275Z,94710.42
2019-04-03T19:58:56.293Z,94712.57
2019-04-03T20:03:59.724Z,94706.79
2019-04-03T20:09:04.992Z,94716.69
2019-04-03T20:14:09.518Z,94715.19
2019-04-03T20:19:11.608Z,94722.27
2019-04-03T20:24:28.816Z,94723.41
2019-04-03T20:29:31.864Z,94728.83
2019-04-03T20:34:33.727Z,94723.70
2019-04-03T20:39:35.545Z,94720.66
2019-04-03T20:44:38.953Z,94714.34
2019-04-03T20:49:43.568Z,94718.30
2019-04-03T20:54:45.585Z,94715.10
2019-04-03T20:59:58.498Z,94718.63
2019-04-03T21:04:51.111Z,94723.27
2019-04-03T21:09:52.845Z,94728.87
2019-04-03T21:15:07.432Z,94728.64
2019-04-03T21:19:58.350Z,94729.73
2019-04-03T21:25:00.190Z,94731.34
2019-04-03T21:30:02.261Z,94739.23
2019-04-03T21:35:04.433Z,94742.92
2019-04-03T21:40:06.268Z,94744.38
2019-04-03T21:45:08.225Z,94746.62
2019-04-03T21:50:10.159Z,94746.62
2019-04-03T21:55:11.893Z,94747.31
2019-04-03T22:00:15.907Z,94748.58
2019-04-03T22:05:19.448Z,94753.23
2019-04-03T22:10:21.465Z,94750.60
2019-04-03T22:15:23.331Z,94749.84
2019-04-03T22:20:25.282Z,94752.97
2019-04-03T22:25:27.192Z,94753.63
2019-04-03T22:30:29.078Z,94749.94
2019-04-03T22:35:32.157Z,94746.77
2019-04-03T22:40:34.683Z,94749.10
2019-04-03T22:45:36.513Z,94742.20
2019-04-03T22:50:38.317Z,94738.62
2019-04-03T22:55:40.188Z,94746.98
2019-04-03T23:00:41.992Z,94743.78
2019-04-03T23:05:43.847Z,94739.62
2019-04-03T23:10:45.632Z,94738.05
2019-04-03T23:15:47.503Z,94731.42
2019-04-03T23:20:52.602Z,94737.83
2019-04-03T23:25:53.086Z,94736.41
2019-04-03T23:30:54.911Z,94737.67
2019-04-03T23:35:56.902Z,94733.65
2019-04-03T23:40:58.790Z,94734.23
2019-04-03T23:46:01.581Z,94726.28
2019-04-03T23:51:03.585Z,94724.67
2019-04-03T23:56:07.400Z,94720.53
